Aviation Digital Data Service (ADDS)

Output produced by METARs form (1307 UTC 24 August 2019)
found at http://www.aviationweather.gov/metar/data/
 
Forecast for: FGSL (MALABO/FERNANDO , GQ)
Text: TAF FGSL 241100Z 2412/2518 22008KT 9999 SCT010 FEW020CB
Forecast period: 1200 UTC 24 August 2019 to 1800 UTC 25 August 2019
Forecast type: FROM: standard forecast or significant change
Winds: from the SW (220 degrees) at 9 MPH (8 knots; 4.1 m/s)
Visibility: 6 or more miles 10+ km)
Ceiling: at least 12,000 feet AGL
Clouds: scattered clouds at 1000 feet AGL
few clouds at 2000 feet AGL
Weather: no significant weather forecast for this period
Text: TEMPO 2414/2420 BKN010 FEW018CB
Forecast period: 1400 to 2000 UTC 24 August 2019
Forecast type: TEMPORARY: The following changes expected for less than half the time period
Visibility: missing
Ceiling: 1000 feet AGL
Clouds: broken clouds at 1000 feet AGL
few clouds at 1800 feet AGL
Weather: no significant weather forecast for this period
Text: PROB30
Forecast period: 2300 UTC 24 August 2019 to 0600 UTC 25 August 2019
Forecast type: TEMPORARY: The following changes expected for less than half the time period
Visibility: 2.49 miles (4.01 km)
Ceiling: 800 feet AGL
Clouds: broken clouds at 800 feet AGL
few clouds at 1600 feet AGL
Weather: RA DZ  (moderate rain, moderate drizzle)